AZA1664 LIRP-LIRF
Flight info
| Callsign | AZA1664 |
|---|---|
| Flight time | 0h 40m |
| Altitude | 30000 |
| Route | DOCME M729 ELB DCT ELKAP |
| Aircraft | MD82/M-SDFGIRWY/S |
Departure
| Time | 2026-05-06 09:46 |
|---|---|
| Airport | Pisa International Airport (LIRP) |
Arrival
| Time | 2026-05-06 10:27 |
|---|---|
| Airport | Rome–Fiumicino Leonardo da Vinci International Airport (LIRF) |
| Time | Latitude | Longitude | Altitude | Speed | Heading |
|---|---|---|---|---|---|
| 2026-05-06 08:42 | 43.69761 | 10.39976 | 12 ft | 0 kts | 7° |
| 2026-05-06 09:38 | 43.69760 | 10.39976 | 12 ft | 1 kts | 7° |
| 2026-05-06 09:38 | 43.69736 | 10.39969 | 14 ft | 4 kts | 20° |
| 2026-05-06 09:39 | 43.69714 | 10.39952 | 12 ft | 4 kts | 43° |
| 2026-05-06 09:39 | 43.69700 | 10.39924 | 14 ft | 4 kts | 73° |
| 2026-05-06 09:39 | 43.69698 | 10.39891 | 15 ft | 2 kts | 99° |
| 2026-05-06 09:39 | 43.69698 | 10.39888 | 15 ft | 2 kts | 99° |
| 2026-05-06 09:42 | 43.69698 | 10.39893 | 15 ft | 1 kts | 99° |
| 2026-05-06 09:42 | 43.69694 | 10.39925 | 13 ft | 4 kts | 99° |
| 2026-05-06 09:42 | 43.69688 | 10.39974 | 12 ft | 3 kts | 99° |
| 2026-05-06 09:43 | 43.69683 | 10.40012 | 12 ft | 5 kts | 102° |
| 2026-05-06 09:43 | 43.69661 | 10.40047 | 13 ft | 5 kts | 155° |
| 2026-05-06 09:43 | 43.69621 | 10.40059 | 12 ft | 7 kts | 171° |
| 2026-05-06 09:43 | 43.69572 | 10.40069 | 12 ft | 8 kts | 172° |
| 2026-05-06 09:44 | 43.69513 | 10.40079 | 12 ft | 9 kts | 172° |
| 2026-05-06 09:44 | 43.69446 | 10.40094 | 13 ft | 11 kts | 170° |
| 2026-05-06 09:44 | 43.69373 | 10.40128 | 11 ft | 11 kts | 139° |
| 2026-05-06 09:44 | 43.69322 | 10.40216 | 11 ft | 12 kts | 127° |
| 2026-05-06 09:45 | 43.69280 | 10.40295 | 9 ft | 9 kts | 127° |
| 2026-05-06 09:45 | 43.69265 | 10.40317 | 9 ft | 1 kts | 153° |
| 2026-05-06 09:45 | 43.69261 | 10.40317 | 9 ft | 0 kts | 173° |
| 2026-05-06 09:45 | 43.69251 | 10.40314 | 9 ft | 5 kts | 194° |
| 2026-05-06 09:46 | 43.69082 | 10.40152 | 10 ft | 61 kts | 217° |
| 2026-05-06 09:46 | 43.68757 | 10.39820 | 7 ft | 110 kts | 216° |
| 2026-05-06 09:46 | 43.67985 | 10.39011 | 116 ft | 159 kts | 216° |
| 2026-05-06 09:46 | 43.67124 | 10.38061 | 882 ft | 160 kts | 218° |
| 2026-05-06 09:47 | 43.66286 | 10.37127 | 1800 ft | 151 kts | 218° |
| 2026-05-06 09:47 | 43.65445 | 10.36258 | 2673 ft | 150 kts | 217° |
| 2026-05-06 09:47 | 43.64598 | 10.35410 | 3452 ft | 150 kts | 216° |
| 2026-05-06 09:47 | 43.63749 | 10.34551 | 4113 ft | 159 kts | 216° |
| 2026-05-06 09:48 | 43.62854 | 10.33516 | 4578 ft | 177 kts | 233° |
| 2026-05-06 09:48 | 43.62561 | 10.31843 | 4977 ft | 194 kts | 277° |
| 2026-05-06 09:48 | 43.63221 | 10.30106 | 5311 ft | 216 kts | 304° |
| 2026-05-06 09:48 | 43.64195 | 10.28447 | 5736 ft | 227 kts | 304° |
| 2026-05-06 09:49 | 43.65195 | 10.26739 | 6302 ft | 230 kts | 305° |
| 2026-05-06 09:49 | 43.66223 | 10.25025 | 6940 ft | 232 kts | 305° |
| 2026-05-06 09:49 | 43.67485 | 10.23600 | 7593 ft | 244 kts | 334° |
| 2026-05-06 09:49 | 43.69194 | 10.23321 | 8170 ft | 257 kts | 9° |
| 2026-05-06 09:50 | 43.70839 | 10.24327 | 8770 ft | 264 kts | 34° |
| 2026-05-06 09:50 | 43.72328 | 10.25861 | 9336 ft | 268 kts | 37° |
| 2026-05-06 09:50 | 43.73636 | 10.27710 | 9888 ft | 272 kts | 62° |
| 2026-05-06 09:50 | 43.74210 | 10.30187 | 10268 ft | 276 kts | 93° |
| 2026-05-06 09:51 | 43.73912 | 10.32792 | 10519 ft | 281 kts | 113° |
| 2026-05-06 09:51 | 43.73298 | 10.35363 | 11092 ft | 282 kts | 115° |
| 2026-05-06 09:51 | 43.72662 | 10.37942 | 11627 ft | 285 kts | 115° |
| 2026-05-06 09:51 | 43.72015 | 10.40540 | 12153 ft | 286 kts | 115° |
| 2026-05-06 09:52 | 43.71333 | 10.43134 | 12684 ft | 287 kts | 118° |
| 2026-05-06 09:52 | 43.70560 | 10.45681 | 13177 ft | 288 kts | 120° |
| 2026-05-06 09:52 | 43.69751 | 10.48234 | 13646 ft | 290 kts | 120° |
| 2026-05-06 09:52 | 43.68798 | 10.50664 | 14034 ft | 284 kts | 138° |
| 2026-05-06 09:53 | 43.67255 | 10.52204 | 14413 ft | 269 kts | 167° |
| 2026-05-06 09:53 | 43.65454 | 10.52417 | 14764 ft | 259 kts | 197° |
| 2026-05-06 09:53 | 43.63848 | 10.51355 | 15172 ft | 257 kts | 217° |
| 2026-05-06 09:53 | 43.62398 | 10.49854 | 15558 ft | 265 kts | 218° |
| 2026-05-06 09:54 | 43.60900 | 10.48268 | 15901 ft | 277 kts | 218° |
| 2026-05-06 09:54 | 43.59344 | 10.46612 | 16334 ft | 286 kts | 218° |
| 2026-05-06 09:54 | 43.57758 | 10.44938 | 16926 ft | 288 kts | 218° |
| 2026-05-06 09:54 | 43.56150 | 10.43286 | 17537 ft | 289 kts | 217° |
| 2026-05-06 09:55 | 43.54508 | 10.41651 | 18087 ft | 292 kts | 217° |
| 2026-05-06 09:55 | 43.52840 | 10.40034 | 18600 ft | 294 kts | 217° |
| 2026-05-06 09:55 | 43.51158 | 10.38428 | 19099 ft | 295 kts | 216° |
| 2026-05-06 09:55 | 43.49487 | 10.36849 | 19586 ft | 296 kts | 216° |
| 2026-05-06 09:56 | 43.47767 | 10.35271 | 20041 ft | 299 kts | 213° |
| 2026-05-06 09:56 | 43.45969 | 10.33804 | 20501 ft | 302 kts | 211° |
| 2026-05-06 09:56 | 43.44132 | 10.32389 | 20963 ft | 304 kts | 211° |
| 2026-05-06 09:56 | 43.42279 | 10.30975 | 21432 ft | 305 kts | 211° |
| 2026-05-06 09:57 | 43.40417 | 10.29553 | 21925 ft | 306 kts | 211° |
| 2026-05-06 09:57 | 43.38551 | 10.28119 | 22383 ft | 308 kts | 211° |
| 2026-05-06 09:57 | 43.36673 | 10.26664 | 22808 ft | 311 kts | 211° |
| 2026-05-06 09:57 | 43.34780 | 10.25184 | 23226 ft | 315 kts | 211° |
| 2026-05-06 09:58 | 43.32869 | 10.23683 | 23637 ft | 317 kts | 211° |
| 2026-05-06 09:58 | 43.30953 | 10.22174 | 24073 ft | 317 kts | 211° |
| 2026-05-06 09:58 | 43.29037 | 10.20664 | 24511 ft | 318 kts | 211° |
| 2026-05-06 09:58 | 43.27119 | 10.19151 | 24977 ft | 318 kts | 212° |
| 2026-05-06 09:59 | 43.25203 | 10.17639 | 25425 ft | 318 kts | 212° |
| 2026-05-06 09:59 | 43.23276 | 10.16119 | 25839 ft | 320 kts | 212° |
| 2026-05-06 09:59 | 43.21336 | 10.14587 | 26273 ft | 322 kts | 212° |
| 2026-05-06 09:59 | 43.19386 | 10.13049 | 26698 ft | 324 kts | 212° |
| 2026-05-06 10:00 | 43.17425 | 10.11501 | 27093 ft | 326 kts | 212° |
| 2026-05-06 10:00 | 43.15388 | 10.10080 | 27489 ft | 332 kts | 200° |
| 2026-05-06 10:00 | 43.13061 | 10.09736 | 27856 ft | 347 kts | 179° |
| 2026-05-06 10:00 | 43.10661 | 10.10711 | 27850 ft | 376 kts | 160° |
| 2026-05-06 10:01 | 43.08352 | 10.12447 | 27910 ft | 391 kts | 156° |
| 2026-05-06 10:01 | 43.05976 | 10.14381 | 27973 ft | 404 kts | 156° |
| 2026-05-06 10:01 | 43.03533 | 10.16388 | 27988 ft | 416 kts | 156° |
| 2026-05-06 10:01 | 43.01015 | 10.18441 | 28017 ft | 427 kts | 156° |
| 2026-05-06 10:02 | 42.98435 | 10.20502 | 28241 ft | 432 kts | 156° |
| 2026-05-06 10:02 | 42.95817 | 10.22540 | 28580 ft | 435 kts | 157° |
| 2026-05-06 10:02 | 42.93165 | 10.24564 | 28777 ft | 438 kts | 157° |
| 2026-05-06 10:02 | 42.90501 | 10.26574 | 28849 ft | 436 kts | 158° |
| 2026-05-06 10:03 | 42.85209 | 10.30541 | 28915 ft | 432 kts | 158° |
| 2026-05-06 10:03 | 42.79955 | 10.34475 | 28931 ft | 430 kts | 158° |
| 2026-05-06 10:04 | 42.74955 | 10.39064 | 28924 ft | 448 kts | 137° |
| 2026-05-06 10:04 | 42.73221 | 10.42670 | 28944 ft | 466 kts | 120° |
| 2026-05-06 10:04 | 42.72290 | 10.46946 | 28936 ft | 480 kts | 102° |
| 2026-05-06 10:05 | 42.72225 | 10.56066 | 28519 ft | 482 kts | 95° |
| 2026-05-06 10:05 | 42.72175 | 10.60555 | 28123 ft | 466 kts | 96° |
| 2026-05-06 10:05 | 42.71691 | 10.64775 | 27837 ft | 439 kts | 114° |
| 2026-05-06 10:06 | 42.70522 | 10.68514 | 27279 ft | 424 kts | 123° |
| 2026-05-06 10:06 | 42.69105 | 10.72000 | 26654 ft | 418 kts | 126° |
| 2026-05-06 10:06 | 42.67636 | 10.75379 | 26034 ft | 413 kts | 127° |
| 2026-05-06 10:06 | 42.66154 | 10.78708 | 25395 ft | 410 kts | 127° |
| 2026-05-06 10:07 | 42.64680 | 10.82011 | 24770 ft | 408 kts | 127° |
| 2026-05-06 10:07 | 42.63226 | 10.85308 | 24160 ft | 405 kts | 126° |
| 2026-05-06 10:07 | 42.61798 | 10.88597 | 23567 ft | 403 kts | 126° |
| 2026-05-06 10:07 | 42.60394 | 10.91877 | 22878 ft | 400 kts | 125° |
| 2026-05-06 10:08 | 42.59012 | 10.95138 | 22251 ft | 395 kts | 125° |
| 2026-05-06 10:08 | 42.57658 | 10.98349 | 21687 ft | 389 kts | 125° |
| 2026-05-06 10:08 | 42.56323 | 11.01513 | 21147 ft | 383 kts | 125° |
| 2026-05-06 10:08 | 42.55001 | 11.04640 | 20629 ft | 383 kts | 125° |
| 2026-05-06 10:09 | 42.53656 | 11.07795 | 20121 ft | 402 kts | 125° |
| 2026-05-06 10:09 | 42.52230 | 11.11121 | 19568 ft | 410 kts | 124° |
| 2026-05-06 10:09 | 42.50801 | 11.14472 | 18979 ft | 410 kts | 124° |
| 2026-05-06 10:09 | 42.49369 | 11.17821 | 18375 ft | 409 kts | 124° |
| 2026-05-06 10:10 | 42.47935 | 11.21153 | 17694 ft | 408 kts | 124° |
| 2026-05-06 10:10 | 42.46516 | 11.24450 | 17050 ft | 403 kts | 124° |
| 2026-05-06 10:10 | 42.45111 | 11.27708 | 16458 ft | 399 kts | 125° |
| 2026-05-06 10:10 | 42.43714 | 11.30947 | 15871 ft | 396 kts | 124° |
| 2026-05-06 10:11 | 42.42326 | 11.34149 | 15342 ft | 393 kts | 124° |
| 2026-05-06 10:11 | 42.40947 | 11.37341 | 14786 ft | 391 kts | 124° |
| 2026-05-06 10:11 | 42.39579 | 11.40511 | 14234 ft | 389 kts | 124° |
| 2026-05-06 10:11 | 42.38220 | 11.43658 | 13650 ft | 387 kts | 124° |
| 2026-05-06 10:12 | 42.36882 | 11.46755 | 13050 ft | 384 kts | 124° |
| 2026-05-06 10:12 | 42.35543 | 11.49858 | 12477 ft | 380 kts | 124° |
| 2026-05-06 10:12 | 42.34215 | 11.52931 | 11920 ft | 377 kts | 124° |
| 2026-05-06 10:12 | 42.32897 | 11.55980 | 11387 ft | 375 kts | 124° |
| 2026-05-06 10:13 | 42.31580 | 11.59019 | 10853 ft | 374 kts | 124° |
| 2026-05-06 10:13 | 42.30283 | 11.62013 | 10510 ft | 360 kts | 125° |
| 2026-05-06 10:13 | 42.29045 | 11.64843 | 10359 ft | 340 kts | 126° |
| 2026-05-06 10:13 | 42.27851 | 11.67510 | 10212 ft | 324 kts | 126° |
| 2026-05-06 10:14 | 42.26708 | 11.70047 | 10068 ft | 309 kts | 126° |
| 2026-05-06 10:14 | 42.25613 | 11.72487 | 9916 ft | 299 kts | 126° |
| 2026-05-06 10:14 | 42.24538 | 11.74892 | 9417 ft | 300 kts | 126° |
| 2026-05-06 10:14 | 42.23466 | 11.77308 | 8917 ft | 299 kts | 126° |
| 2026-05-06 10:15 | 42.22410 | 11.79712 | 8454 ft | 297 kts | 125° |
| 2026-05-06 10:15 | 42.21380 | 11.82066 | 8049 ft | 293 kts | 125° |
| 2026-05-06 10:15 | 42.20354 | 11.84420 | 7651 ft | 289 kts | 125° |
| 2026-05-06 10:15 | 42.19346 | 11.86741 | 7295 ft | 284 kts | 125° |
| 2026-05-06 10:16 | 42.18352 | 11.89024 | 6932 ft | 280 kts | 124° |
| 2026-05-06 10:16 | 42.17376 | 11.91276 | 6562 ft | 277 kts | 124° |
| 2026-05-06 10:16 | 42.16411 | 11.93504 | 6185 ft | 272 kts | 125° |
| 2026-05-06 10:16 | 42.15463 | 11.95682 | 5796 ft | 266 kts | 125° |
| 2026-05-06 10:17 | 42.14543 | 11.97810 | 5451 ft | 260 kts | 125° |
| 2026-05-06 10:17 | 42.13641 | 11.99887 | 5089 ft | 253 kts | 125° |
| 2026-05-06 10:17 | 42.12762 | 12.01915 | 4741 ft | 248 kts | 125° |
| 2026-05-06 10:17 | 42.11895 | 12.03894 | 4400 ft | 243 kts | 128° |
| 2026-05-06 10:18 | 42.10868 | 12.05654 | 4110 ft | 235 kts | 137° |
| 2026-05-06 10:18 | 42.09779 | 12.07213 | 3904 ft | 220 kts | 139° |
| 2026-05-06 10:18 | 42.08761 | 12.08631 | 3702 ft | 207 kts | 140° |
| 2026-05-06 10:18 | 42.07790 | 12.09991 | 3494 ft | 197 kts | 139° |
| 2026-05-06 10:19 | 42.06853 | 12.11293 | 3298 ft | 190 kts | 139° |
| 2026-05-06 10:19 | 42.05947 | 12.12568 | 3092 ft | 187 kts | 139° |
| 2026-05-06 10:19 | 42.05079 | 12.13822 | 2907 ft | 174 kts | 139° |
| 2026-05-06 10:19 | 42.04307 | 12.14955 | 2764 ft | 158 kts | 139° |
| 2026-05-06 10:20 | 42.03592 | 12.16012 | 2613 ft | 148 kts | 139° |
| 2026-05-06 10:20 | 42.02916 | 12.17014 | 2411 ft | 141 kts | 140° |
| 2026-05-06 10:20 | 42.02259 | 12.17964 | 2225 ft | 136 kts | 140° |
| 2026-05-06 10:20 | 42.01604 | 12.18827 | 2072 ft | 126 kts | 154° |
| 2026-05-06 10:21 | 42.00807 | 12.19207 | 1983 ft | 122 kts | 164° |
| 2026-05-06 10:21 | 42.00021 | 12.19574 | 1986 ft | 117 kts | 161° |
| 2026-05-06 10:21 | 41.99265 | 12.19978 | 2019 ft | 115 kts | 162° |
| 2026-05-06 10:21 | 41.98492 | 12.20343 | 2024 ft | 120 kts | 164° |
| 2026-05-06 10:22 | 41.97698 | 12.20684 | 2014 ft | 118 kts | 166° |
| 2026-05-06 10:22 | 41.96919 | 12.21008 | 1999 ft | 114 kts | 166° |
| 2026-05-06 10:22 | 41.96145 | 12.21329 | 2016 ft | 121 kts | 166° |
| 2026-05-06 10:22 | 41.95344 | 12.21660 | 2049 ft | 120 kts | 166° |
| 2026-05-06 10:23 | 41.94546 | 12.21990 | 2024 ft | 120 kts | 165° |
| 2026-05-06 10:23 | 41.93750 | 12.22322 | 1974 ft | 122 kts | 165° |
| 2026-05-06 10:23 | 41.92942 | 12.22659 | 1796 ft | 120 kts | 164° |
| 2026-05-06 10:23 | 41.92149 | 12.22995 | 1590 ft | 119 kts | 164° |
| 2026-05-06 10:24 | 41.91373 | 12.23321 | 1410 ft | 116 kts | 163° |
| 2026-05-06 10:24 | 41.90598 | 12.23648 | 1271 ft | 115 kts | 163° |
| 2026-05-06 10:24 | 41.89824 | 12.23971 | 1113 ft | 118 kts | 164° |
| 2026-05-06 10:24 | 41.89029 | 12.24305 | 988 ft | 121 kts | 164° |
| 2026-05-06 10:25 | 41.88221 | 12.24638 | 807 ft | 120 kts | 162° |
| 2026-05-06 10:25 | 41.87412 | 12.24969 | 668 ft | 122 kts | 161° |
| 2026-05-06 10:25 | 41.86601 | 12.25306 | 538 ft | 121 kts | 161° |
| 2026-05-06 10:25 | 41.85809 | 12.25645 | 341 ft | 120 kts | 163° |
| 2026-05-06 10:26 | 41.85026 | 12.25964 | 184 ft | 115 kts | 162° |
| 2026-05-06 10:26 | 41.84268 | 12.26284 | 49 ft | 112 kts | 161° |
| 2026-05-06 10:26 | 41.83560 | 12.26586 | 16 ft | 100 kts | 162° |
| 2026-05-06 10:26 | 41.82942 | 12.26847 | 14 ft | 87 kts | 163° |
| 2026-05-06 10:27 | 41.82453 | 12.27053 | 11 ft | 45 kts | 162° |
| 2026-05-06 10:27 | 41.82180 | 12.27165 | 13 ft | 40 kts | 165° |
| 2026-05-06 10:27 | 41.81917 | 12.27266 | 13 ft | 38 kts | 162° |
| 2026-05-06 10:27 | 41.81729 | 12.27350 | 14 ft | 16 kts | 161° |
| 2026-05-06 10:28 | 41.81625 | 12.27396 | 15 ft | 16 kts | 162° |
| 2026-05-06 10:28 | 41.81514 | 12.27427 | 14 ft | 17 kts | 184° |
| 2026-05-06 10:28 | 41.81399 | 12.27379 | 13 ft | 16 kts | 220° |
| 2026-05-06 10:28 | 41.81341 | 12.27258 | 13 ft | 16 kts | 225° |
| 2026-05-06 10:29 | 41.81237 | 12.27232 | 13 ft | 16 kts | 168° |
| 2026-05-06 10:29 | 41.81130 | 12.27278 | 14 ft | 16 kts | 162° |
| 2026-05-06 10:29 | 41.81020 | 12.27325 | 15 ft | 17 kts | 162° |
| 2026-05-06 10:29 | 41.80903 | 12.27347 | 13 ft | 17 kts | 186° |
| 2026-05-06 10:30 | 41.80782 | 12.27321 | 13 ft | 18 kts | 189° |
| 2026-05-06 10:30 | 41.80672 | 12.27252 | 13 ft | 18 kts | 234° |
| 2026-05-06 10:30 | 41.80620 | 12.27095 | 14 ft | 19 kts | 249° |
| 2026-05-06 10:30 | 41.80574 | 12.26925 | 16 ft | 20 kts | 249° |
| 2026-05-06 10:31 | 41.80524 | 12.26746 | 15 ft | 21 kts | 250° |
| 2026-05-06 10:31 | 41.80481 | 12.26591 | 17 ft | 13 kts | 249° |
| 2026-05-06 10:31 | 41.80447 | 12.26468 | 16 ft | 15 kts | 249° |
| 2026-05-06 10:31 | 41.80401 | 12.26376 | 16 ft | 11 kts | 208° |
| 2026-05-06 10:32 | 41.80319 | 12.26383 | 15 ft | 13 kts | 158° |
| 2026-05-06 10:32 | 41.80229 | 12.26407 | 15 ft | 14 kts | 187° |
| 2026-05-06 10:32 | 41.80139 | 12.26359 | 15 ft | 14 kts | 205° |
| 2026-05-06 10:32 | 41.80046 | 12.26302 | 16 ft | 15 kts | 204° |
| 2026-05-06 10:33 | 41.79946 | 12.26240 | 16 ft | 16 kts | 205° |
| 2026-05-06 10:33 | 41.79876 | 12.26197 | 16 ft | 17 kts | 204° |
| 2026-05-06 10:33 | 41.79783 | 12.26136 | 15 ft | 11 kts | 219° |
| 2026-05-06 10:33 | 41.79774 | 12.26044 | 15 ft | 11 kts | 290° |
| 2026-05-06 10:34 | 41.79811 | 12.25938 | 15 ft | 14 kts | 295° |
| 2026-05-06 10:34 | 41.79855 | 12.25815 | 15 ft | 16 kts | 295° |
| 2026-05-06 10:34 | 41.79901 | 12.25684 | 15 ft | 9 kts | 295° |
| 2026-05-06 10:34 | 41.79925 | 12.25615 | 15 ft | 8 kts | 295° |
| 2026-05-06 10:35 | 41.79940 | 12.25571 | 15 ft | 1 kts | 293° |
| 2026-05-06 10:35 | 41.79942 | 12.25553 | 17 ft | 2 kts | 267° |
| 2026-05-06 10:35 | 41.79932 | 12.25534 | 15 ft | 3 kts | 212° |
| 2026-05-06 10:35 | 41.79908 | 12.25518 | 15 ft | 5 kts | 206° |
| 2026-05-06 10:36 | 41.79871 | 12.25494 | 15 ft | 7 kts | 205° |
| 2026-05-06 10:36 | 41.79833 | 12.25471 | 16 ft | 4 kts | 204° |
| 2026-05-06 10:36 | 41.79816 | 12.25475 | 15 ft | 2 kts | 148° |
| 2026-05-06 10:36 | 41.79806 | 12.25493 | 15 ft | 3 kts | 122° |
| 2026-05-06 10:37 | 41.79797 | 12.25515 | 15 ft | 0 kts | 116° |